Terminal Aerodrome Forecast
Issued by NWS

Home | Current Version | Previous Version | Text Only | Print | Product List | Glossary On
Versions: 1 2 3 4 5 6 7 8 9 10 11 12 13 14 15 16 17 18 19 20 21 22 23 24 25
524
FTUS43 KGRR 011903 AAA
TAFBTL
TAF AMD
KBTL 011903Z 0119/0218 26016G26KT P6SM BKN009 OVC014
     FM012100 28018G32KT 6SM -SHRASN OVC020
     FM012300 29019G27KT 2SM -SN OVC007
     FM020200 30019G28KT 1 1/2SM -SN OVC015
     FM020400 30015G22KT P6SM OVC025
     FM021200 30012KT P6SM BKN025=

USA.gov is the U.S. government's official web portal to all federal, state and local government web resources and services.